Monday, August 21, 2017, 8:00 AM EDT

KIPT, Williamsport-lycoming County

Location: Montoursville, PA, United States Lat: 41.25
Local Time: 8:00 AM EDT (12:00 GMT) Lon: -76.917
Time Zone: US/Eastern Elev: 528 ft

Show me the last for .
Show Decoded

2017-08-21 06:54 METAR KIPT 211054Z 00000KT 7SM BKN004 18/17 A3019 RMK AO2 SLP221 T01780167 =
2017-08-21 06:17 METAR KIPT 211017Z AUTO 00000KT 10SM OVC004 17/17 A3019 RMK AO2 T01720167 =
2017-08-21 05:54 METAR KIPT 210954Z AUTO 00000KT 10SM BKN005 17/17 A3019 RMK AO2 SLP221 T01720167
                 =
2017-08-21 05:41 METAR KIPT 210941Z AUTO 00000KT 10SM BKN005 17/17 A3019 RMK AO2 T01720167 =
2017-08-21 05:32 METAR KIPT 210932Z AUTO 00000KT 10SM SCT005 17/17 A3019 RMK AO2 T01720167 =
2017-08-21 04:54 METAR KIPT 210854Z AUTO 00000KT 8SM CLR 17/17 A3019 RMK AO2 PK WND 27028/0822
                 SLP219 T01720167 53004 =
2017-08-21 03:54 METAR KIPT 210754Z AUTO 00000KT 9SM CLR 17/17 A3017 RMK AO2 SLP215 T01720167 =
2017-08-21 02:54 METAR KIPT 210654Z AUTO 34003KT 10SM CLR 18/17 A3017 RMK AO2 SLP215 T01780172 =
2017-08-21 01:54 METAR KIPT 210554Z AUTO 00000KT 10SM CLR 18/17 A3018 RMK AO2 SLP215 T01780172
                 10250 20178 52004 =
2017-08-21 00:54 METAR KIPT 210454Z AUTO 00000KT 10SM CLR 18/18 A3017 RMK AO2 SLP214 T01830178
                 402940167 =
2017-08-20 23:54 METAR KIPT 210354Z AUTO 00000KT 10SM CLR 20/18 A3017 RMK AO2 SLP212 T02000183 =
2017-08-20 22:54 METAR KIPT 210254Z AUTO 31003KT 10SM CLR 20/18 A3017 RMK AO2 SLP212 T02000183
                 51024 =
2017-08-20 21:54 METAR KIPT 210154Z 35003KT 10SM CLR 22/19 A3014 RMK AO2 SLP205 T02170189 =
2017-08-20 20:54 METAR KIPT 210054Z 00000KT 10SM CLR 23/19 A3012 RMK AO2 SLP195 T02280189 =
2017-08-20 19:54 METAR KIPT 202354Z 22004KT 10SM CLR 25/17 A3009 RMK AO2 SLP187 T02500167 10294
                 20244 53002 =
2017-08-20 18:54 METAR KIPT 202254Z 21006KT 10SM CLR 27/18 A3008 RMK AO2 SLP184 T02720178 =
2017-08-20 17:54 METAR KIPT 202154Z 21005KT 10SM CLR 28/17 A3007 RMK AO2 SLP181 T02830172 =
2017-08-20 16:54 METAR KIPT 202054Z 22007KT 10SM FEW050 29/17 A3009 RMK AO2 SLP185 T02890172
                 56007 =
2017-08-20 15:54 METAR KIPT 201954Z VRB05KT 10SM FEW055 29/17 A3009 RMK AO2 SLP185 T02890167 =
2017-08-20 14:54 METAR KIPT 201854Z 24003KT 10SM CLR 28/16 A3010 RMK AO2 SLP188 T02780161 =
2017-08-20 13:54 METAR KIPT 201754Z 20003KT 10SM SCT035 27/17 A3011 RMK AO2 SLP193 T02720167
                 10278 20172 58002 =
2017-08-20 12:54 METAR KIPT 201654Z 19004KT 10SM SCT034 26/17 A3013 RMK AO2 SLP198 T02610172 =
2017-08-20 11:54 METAR KIPT 201554Z VRB05KT 10SM SCT033 24/17 A3012 RMK AO2 SLP198 T02390167 =
2017-08-20 10:54 METAR KIPT 201454Z 25004KT 10SM SCT014 22/16 A3011 RMK AO2 SLP194 T02220161
                 53005 =
2017-08-20 09:54 METAR KIPT 201354Z 29006KT 10SM SCT014 21/16 A3010 RMK AO2 SLP192 T02110161 =
2017-08-20 09:01 METAR KIPT 201301Z 30006KT 10SM SCT014 19/16 A3010 RMK AO2 T01890161 =
2017-08-20 08:54 METAR KIPT 201254Z 30008KT 10SM BKN014 19/16 A3010 RMK AO2 SLP190 T01890161 =

Support USWX by starting your Amazon purchase here.